This is the latest recevied weather packets stored in our database for station/object DB2AG-13. If no packets are shown the sender has not sent any weather packets the latest 10 day(s).
| Time | Temp. | Humidity | Pressure | Rain* | Wind** | Luminosity | Snow |
|---|---|---|---|---|---|---|---|
| 1788001852 | 24.44° C | 45% | 1014 hPa | - | - | - | - |
| 1788001309 | 23.89° C | 45% | 1014 hPa | - | - | - | - |
| 1788000774 | 23.33° C | 45% | 1013.9 hPa | - | - | - | - |
| 1788000234 | 24.44° C | 43% | 1014.1 hPa | - | - | - | - |
| 1787999689 | 25° C | 43% | 1013.9 hPa | - | - | - | - |
| 1787999149 | 24.44° C | 43% | 1014 hPa | - | - | - | - |
| 1787998606 | 24.44° C | 44% | 1014 hPa | - | - | - | - |
| 1787998071 | 23.89° C | 46% | 1013.9 hPa | - | - | - | - |
| 1787996992 | 23.33° C | 47% | 1013.9 hPa | - | - | - | - |
| 1787996458 | 22.22° C | 52% | 1014 hPa | - | - | - | - |
| 1787995924 | 21.11° C | 52% | 1014.1 hPa | - | - | - | - |
| 1787995391 | 21.67° C | 49% | 1014.2 hPa | - | - | - | - |
| 1787994856 | 22.78° C | 47% | 1014.3 hPa | - | - | - | - |
| 1787994325 | 23.33° C | 46% | 1014.2 hPa | - | - | - | - |
| 1787993787 | 23.33° C | 48% | 1014.2 hPa | - | - | - | - |
| 1787993243 | 22.78° C | 49% | 1014.2 hPa | - | - | - | - |
| 1787992702 | 21.67° C | 52% | 1014 hPa | - | - | - | - |
| 1787992159 | 20° C | 54% | 1014.2 hPa | - | - | - | - |
| 1787991619 | 20° C | 55% | 1014.2 hPa | - | - | - | - |
| 1787991083 | 18.89° C | 57% | 1014.2 hPa | - | - | - | - |
| 1787990001 | 18.89° C | 57% | 1013.8 hPa | - | - | - | - |
| 1787989462 | 19.44° C | 54% | 1013.9 hPa | - | - | - | - |
| 1787988386 | 21.11° C | 51% | 1013.8 hPa | - | - | - | - |
| 1787987851 | 22.22° C | 50% | 1013.6 hPa | - | - | - | - |
| 1787987307 | 21.11° C | 53% | 1013.6 hPa | - | - | - | - |
* Rain since midnight (hover to see other rain measurements)
** Current wind speed in m/s (hover to see current wind gust speed)